KWVL/WVL METAR and TAF weather

Enter ICAO airport designator
Station Type Date Time Source
KWVL METAR 2021/09/28 03:56 UTC NOAA

KWVL 280356Z AUTO 00000KT 10SM CLR 14/14 A2974 RMK AO2 SLP095 T01440139 PNO $


Station Type Date Time Source
KWVL Decoded METAR 2021/09/28 03:56 UTC NOAA

Waterville, Waterville Robert LaFleur Airport, ME, United States (KWVL) 44-32N 069-41W
Sep 27, 2021 - 11:56 PM EDT / 2021.09.28 0356 UTC
Wind: Calm:0
Visibility: 10 mile(s):0
Sky conditions: clear
Temperature: 57.9 F (14.4 C)
Dew Point: 57.0 F (13.9 C)
Relative Humidity: 96%
Pressure (altimeter): 29.74 in. Hg (1007 hPa)
ob: KWVL 280356Z AUTO 00000KT 10SM CLR 14/14 A2974 RMK AO2 SLP095 T01440139 PNO
cycle: 4

Station Type Date Time Source
KWVL TAF UTC NOAA

Error!

Example: see airport list